sensor_id;sensor_type;location;lat;lon;timestamp;pressure;altitude;pressure_sealevel;temperature;humidity
85315;BME280;75718;50.886;11.656;2024-03-02T00:00:49;97646.53;;;5.23;95.26
85315;BME280;75718;50.886;11.656;2024-03-02T00:03:15;97648.75;;;5.09;96.31
85315;BME280;75718;50.886;11.656;2024-03-02T00:05:40;97650.63;;;5.04;96.14
85315;BME280;75718;50.886;11.656;2024-03-02T00:08:06;97640.47;;;4.98;95.94
85315;BME280;75718;50.886;11.656;2024-03-02T00:10:39;97643.13;;;4.96;96.63
85315;BME280;75718;50.886;11.656;2024-03-02T00:13:08;97642.66;;;4.84;96.32
85315;BME280;75718;50.886;11.656;2024-03-02T00:15:40;97644.69;;;4.75;96.91
85315;BME280;75718;50.886;11.656;2024-03-02T00:18:11;97642.19;;;4.72;96.84
85315;BME280;75718;50.886;11.656;2024-03-02T00:20:37;97635.59;;;4.62;97.31
85315;BME280;75718;50.886;11.656;2024-03-02T00:23:04;97639.53;;;4.73;96.62
85315;BME280;75718;50.886;11.656;2024-03-02T00:25:53;97641.81;;;4.83;96.08
85315;BME280;75718;50.886;11.656;2024-03-02T00:28:32;97641.53;;;4.91;96.81
85315;BME280;75718;50.886;11.656;2024-03-02T00:33:34;97631.22;;;4.89;95.70
85315;BME280;75718;50.886;11.656;2024-03-02T00:36:00;97630.13;;;4.96;96.36
85315;BME280;75718;50.886;11.656;2024-03-02T00:38:27;97628.66;;;4.88;96.68
85315;BME280;75718;50.886;11.656;2024-03-02T00:40:52;97624.72;;;4.76;96.65
85315;BME280;75718;50.886;11.656;2024-03-02T00:46:02;97631.38;;;4.58;97.53
85315;BME280;75718;50.886;11.656;2024-03-02T00:48:27;97624.50;;;4.57;97.45
85315;BME280;75718;50.886;11.656;2024-03-02T00:50:52;97626.09;;;4.61;97.32
85315;BME280;75718;50.886;11.656;2024-03-02T00:53:23;97628.41;;;4.70;97.74
85315;BME280;75718;50.886;11.656;2024-03-02T00:55:50;97617.81;;;4.77;97.15
85315;BME280;75718;50.886;11.656;2024-03-02T00:58:15;97630.81;;;4.75;96.71
85315;BME280;75718;50.886;11.656;2024-03-02T01:00:40;97623.66;;;4.82;96.67
85315;BME280;75718;50.886;11.656;2024-03-02T01:03:05;97623.78;;;4.79;96.67
85315;BME280;75718;50.886;11.656;2024-03-02T01:05:31;97619.94;;;4.90;96.70
85315;BME280;75718;50.886;11.656;2024-03-02T01:07:56;97632.63;;;4.99;95.85
85315;BME280;75718;50.886;11.656;2024-03-02T01:10:21;97630.44;;;5.13;96.00
85315;BME280;75718;50.886;11.656;2024-03-02T01:12:46;97633.81;;;5.15;95.33
85315;BME280;75718;50.886;11.656;2024-03-02T01:15:12;97628.59;;;5.15;95.37
85315;BME280;75718;50.886;11.656;2024-03-02T01:17:37;97620.19;;;5.09;95.46
85315;BME280;75718;50.886;11.656;2024-03-02T01:20:03;97630.31;;;5.16;94.82
85315;BME280;75718;50.886;11.656;2024-03-02T01:22:28;97623.97;;;5.25;94.61
85315;BME280;75718;50.886;11.656;2024-03-02T01:24:53;97631.41;;;5.35;95.13
85315;BME280;75718;50.886;11.656;2024-03-02T01:27:19;97625.50;;;5.30;95.25
85315;BME280;75718;50.886;11.656;2024-03-02T01:29:45;97629.59;;;5.37;95.17
85315;BME280;75718;50.886;11.656;2024-03-02T01:32:10;97632.41;;;5.31;94.94
85315;BME280;75718;50.886;11.656;2024-03-02T01:34:35;97627.59;;;5.21;95.79
85315;BME280;75718;50.886;11.656;2024-03-02T01:37:00;97630.19;;;5.21;95.23
85315;BME280;75718;50.886;11.656;2024-03-02T01:39:25;97629.63;;;5.11;95.84
85315;BME280;75718;50.886;11.656;2024-03-02T01:41:51;97626.81;;;5.17;95.98
85315;BME280;75718;50.886;11.656;2024-03-02T01:44:16;97630.91;;;5.24;95.20
85315;BME280;75718;50.886;11.656;2024-03-02T01:46:42;97626.59;;;5.23;95.87
85315;BME280;75718;50.886;11.656;2024-03-02T01:49:07;97619.88;;;5.18;95.86
85315;BME280;75718;50.886;11.656;2024-03-02T01:51:32;97627.31;;;5.28;95.49
85315;BME280;75718;50.886;11.656;2024-03-02T01:53:57;97629.66;;;5.35;95.70
85315;BME280;75718;50.886;11.656;2024-03-02T01:56:23;97633.75;;;5.42;95.86
85315;BME280;75718;50.886;11.656;2024-03-02T01:58:49;97622.28;;;5.48;94.50
85315;BME280;75718;50.886;11.656;2024-03-02T02:01:14;97621.41;;;5.49;95.06
85315;BME280;75718;50.886;11.656;2024-03-02T02:03:39;97628.19;;;5.53;94.65
85315;BME280;75718;50.886;11.656;2024-03-02T02:06:05;97625.59;;;5.53;95.17
85315;BME280;75718;50.886;11.656;2024-03-02T02:08:32;97627.38;;;5.51;94.79
85315;BME280;75718;50.886;11.656;2024-03-02T02:10:57;97634.34;;;5.50;94.30
85315;BME280;75718;50.886;11.656;2024-03-02T02:13:23;97637.44;;;5.35;95.04
85315;BME280;75718;50.886;11.656;2024-03-02T02:15:48;97641.03;;;5.32;95.24
85315;BME280;75718;50.886;11.656;2024-03-02T02:18:13;97640.22;;;5.31;95.30
85315;BME280;75718;50.886;11.656;2024-03-02T02:20:38;97640.81;;;5.13;94.54
85315;BME280;75718;50.886;11.656;2024-03-02T02:23:04;97634.81;;;5.11;94.84
85315;BME280;75718;50.886;11.656;2024-03-02T02:25:31;97637.53;;;5.08;95.43
85315;BME280;75718;50.886;11.656;2024-03-02T02:27:56;97642.72;;;5.08;95.25
85315;BME280;75718;50.886;11.656;2024-03-02T02:30:26;97643.50;;;5.10;95.38
85315;BME280;75718;50.886;11.656;2024-03-02T02:32:51;97649.59;;;5.09;95.97
85315;BME280;75718;50.886;11.656;2024-03-02T02:35:17;97650.50;;;5.08;95.35
85315;BME280;75718;50.886;11.656;2024-03-02T02:37:43;97648.78;;;5.07;94.73
85315;BME280;75718;50.886;11.656;2024-03-02T02:40:09;97644.59;;;5.29;95.85
85315;BME280;75718;50.886;11.656;2024-03-02T02:42:34;97650.72;;;5.27;95.93
85315;BME280;75718;50.886;11.656;2024-03-02T02:44:59;97638.63;;;5.27;95.04
85315;BME280;75718;50.886;11.656;2024-03-02T02:47:25;97640.28;;;5.28;95.93
85315;BME280;75718;50.886;11.656;2024-03-02T02:49:51;97643.28;;;5.42;95.16
85315;BME280;75718;50.886;11.656;2024-03-02T02:52:16;97644.56;;;5.55;93.92
85315;BME280;75718;50.886;11.656;2024-03-02T02:54:41;97645.38;;;5.57;94.08
85315;BME280;75718;50.886;11.656;2024-03-02T02:57:06;97647.38;;;5.49;94.14
85315;BME280;75718;50.886;11.656;2024-03-02T02:59:32;97643.19;;;5.45;95.38
85315;BME280;75718;50.886;11.656;2024-03-02T03:01:57;97641.25;;;5.50;95.18
85315;BME280;75718;50.886;11.656;2024-03-02T03:04:22;97640.41;;;5.49;95.18
85315;BME280;75718;50.886;11.656;2024-03-02T03:06:47;97637.00;;;5.47;94.31
85315;BME280;75718;50.886;11.656;2024-03-02T03:09:13;97641.50;;;5.44;95.66
85315;BME280;75718;50.886;11.656;2024-03-02T03:11:38;97640.63;;;5.43;95.46
85315;BME280;75718;50.886;11.656;2024-03-02T03:14:03;97641.56;;;5.41;94.54
85315;BME280;75718;50.886;11.656;2024-03-02T03:16:30;97644.03;;;5.45;94.52
85315;BME280;75718;50.886;11.656;2024-03-02T03:18:55;97646.75;;;5.42;95.46
85315;BME280;75718;50.886;11.656;2024-03-02T03:21:20;97642.31;;;5.44;95.60
85315;BME280;75718;50.886;11.656;2024-03-02T03:23:46;97649.28;;;5.44;96.13
85315;BME280;75718;50.886;11.656;2024-03-02T03:26:11;97650.06;;;5.46;95.44
85315;BME280;75718;50.886;11.656;2024-03-02T03:28:36;97647.38;;;5.49;96.49
85315;BME280;75718;50.886;11.656;2024-03-02T03:31:02;97650.69;;;5.52;95.52
85315;BME280;75718;50.886;11.656;2024-03-02T03:33:28;97646.38;;;5.53;96.50
85315;BME280;75718;50.886;11.656;2024-03-02T03:35:53;97641.06;;;5.56;95.90
85315;BME280;75718;50.886;11.656;2024-03-02T03:38:19;97635.69;;;5.60;96.51
85315;BME280;75718;50.886;11.656;2024-03-02T03:40:44;97637.19;;;5.67;97.04
85315;BME280;75718;50.886;11.656;2024-03-02T03:43:10;97640.53;;;5.71;96.41
85315;BME280;75718;50.886;11.656;2024-03-02T03:45:35;97637.69;;;5.78;97.40
85315;BME280;75718;50.886;11.656;2024-03-02T03:48:01;97639.22;;;5.84;96.08
85315;BME280;75718;50.886;11.656;2024-03-02T03:50:26;97641.91;;;5.82;95.99
85315;BME280;75718;50.886;11.656;2024-03-02T03:52:51;97637.66;;;5.80;96.10
85315;BME280;75718;50.886;11.656;2024-03-02T03:55:17;97633.16;;;5.83;96.29
85315;BME280;75718;50.886;11.656;2024-03-02T03:57:42;97630.47;;;5.86;95.69
85315;BME280;75718;50.886;11.656;2024-03-02T04:00:07;97634.13;;;5.81;96.10
85315;BME280;75718;50.886;11.656;2024-03-02T04:02:35;97637.69;;;5.78;96.58
85315;BME280;75718;50.886;11.656;2024-03-02T04:05:00;97636.41;;;5.90;96.31
85315;BME280;75718;50.886;11.656;2024-03-02T04:07:25;97632.63;;;5.98;96.53
85315;BME280;75718;50.886;11.656;2024-03-02T04:09:51;97639.00;;;5.90;96.01
85315;BME280;75718;50.886;11.656;2024-03-02T04:12:16;97644.81;;;5.96;95.91
85315;BME280;75718;50.886;11.656;2024-03-02T04:14:41;97642.13;;;5.99;96.43
85315;BME280;75718;50.886;11.656;2024-03-02T04:17:07;97649.34;;;5.91;96.42
85315;BME280;75718;50.886;11.656;2024-03-02T04:19:32;97646.47;;;5.98;96.19
85315;BME280;75718;50.886;11.656;2024-03-02T04:21:58;97654.38;;;5.96;96.73
85315;BME280;75718;50.886;11.656;2024-03-02T04:24:23;97651.91;;;5.93;96.41
85315;BME280;75718;50.886;11.656;2024-03-02T04:26:48;97654.72;;;5.87;96.18
85315;BME280;75718;50.886;11.656;2024-03-02T04:29:13;97656.16;;;5.95;95.71
85315;BME280;75718;50.886;11.656;2024-03-02T04:31:38;97650.41;;;5.86;97.13
85315;BME280;75718;50.886;11.656;2024-03-02T04:34:04;97659.75;;;5.91;96.71
85315;BME280;75718;50.886;11.656;2024-03-02T04:36:29;97658.28;;;5.84;95.14
85315;BME280;75718;50.886;11.656;2024-03-02T04:38:54;97662.13;;;5.73;95.15
85315;BME280;75718;50.886;11.656;2024-03-02T04:41:20;97666.88;;;5.60;94.88
85315;BME280;75718;50.886;11.656;2024-03-02T04:43:45;97666.84;;;5.62;95.42
85315;BME280;75718;50.886;11.656;2024-03-02T04:46:10;97661.84;;;5.56;96.07
85315;BME280;75718;50.886;11.656;2024-03-02T04:48:36;97671.59;;;5.49;95.75
85315;BME280;75718;50.886;11.656;2024-03-02T04:51:01;97677.06;;;5.42;96.81
85315;BME280;75718;50.886;11.656;2024-03-02T04:53:27;97673.69;;;5.40;96.95
85315;BME280;75718;50.886;11.656;2024-03-02T04:55:52;97669.13;;;5.46;96.96
85315;BME280;75718;50.886;11.656;2024-03-02T04:58:20;97665.34;;;5.55;96.55
85315;BME280;75718;50.886;11.656;2024-03-02T05:00:46;97667.00;;;5.57;96.75
85315;BME280;75718;50.886;11.656;2024-03-02T05:03:12;97663.63;;;5.55;97.01
85315;BME280;75718;50.886;11.656;2024-03-02T05:05:37;97670.28;;;5.62;97.20
85315;BME280;75718;50.886;11.656;2024-03-02T05:08:03;97665.19;;;5.85;97.45
85315;BME280;75718;50.886;11.656;2024-03-02T05:10:29;97663.03;;;5.96;97.15
85315;BME280;75718;50.886;11.656;2024-03-02T05:12:54;97670.13;;;5.91;97.31
85315;BME280;75718;50.886;11.656;2024-03-02T05:15:24;97663.31;;;5.89;97.69
85315;BME280;75718;50.886;11.656;2024-03-02T05:17:50;97666.50;;;5.97;98.45
85315;BME280;75718;50.886;11.656;2024-03-02T05:20:15;97666.66;;;6.15;98.52
85315;BME280;75718;50.886;11.656;2024-03-02T05:22:40;97665.38;;;6.26;98.30
85315;BME280;75718;50.886;11.656;2024-03-02T05:25:06;97656.41;;;6.35;97.79
85315;BME280;75718;50.886;11.656;2024-03-02T05:27:32;97662.38;;;6.37;97.75
85315;BME280;75718;50.886;11.656;2024-03-02T05:29:58;97655.03;;;6.48;97.87
85315;BME280;75718;50.886;11.656;2024-03-02T05:32:23;97651.84;;;6.40;98.39
85315;BME280;75718;50.886;11.656;2024-03-02T05:34:48;97658.69;;;6.42;97.69
85315;BME280;75718;50.886;11.656;2024-03-02T05:37:16;97654.69;;;6.34;97.67
85315;BME280;75718;50.886;11.656;2024-03-02T05:39:41;97656.75;;;6.47;98.60
85315;BME280;75718;50.886;11.656;2024-03-02T05:42:08;97664.84;;;6.40;98.23
85315;BME280;75718;50.886;11.656;2024-03-02T05:44:34;97675.31;;;6.38;98.67
85315;BME280;75718;50.886;11.656;2024-03-02T05:46:59;97659.50;;;6.44;97.94
85315;BME280;75718;50.886;11.656;2024-03-02T05:49:24;97662.16;;;6.43;99.11
85315;BME280;75718;50.886;11.656;2024-03-02T05:51:49;97653.03;;;6.54;98.27
85315;BME280;75718;50.886;11.656;2024-03-02T05:54:15;97648.78;;;6.52;98.84
85315;BME280;75718;50.886;11.656;2024-03-02T05:56:40;97658.41;;;6.50;98.56
85315;BME280;75718;50.886;11.656;2024-03-02T05:59:05;97663.03;;;6.64;97.68
85315;BME280;75718;50.886;11.656;2024-03-02T06:01:42;97671.06;;;6.58;97.66
85315;BME280;75718;50.886;11.656;2024-03-02T06:04:08;97661.41;;;6.62;97.99
85315;BME280;75718;50.886;11.656;2024-03-02T06:06:33;97663.59;;;6.50;98.29
85315;BME280;75718;50.886;11.656;2024-03-02T06:09:03;97670.66;;;6.48;98.80
85315;BME280;75718;50.886;11.656;2024-03-02T06:11:33;97668.19;;;6.43;98.99
85315;BME280;75718;50.886;11.656;2024-03-02T06:13:58;97661.13;;;6.47;99.30
85315;BME280;75718;50.886;11.656;2024-03-02T06:16:24;97672.16;;;6.53;98.77
85315;BME280;75718;50.886;11.656;2024-03-02T06:18:49;97669.63;;;6.52;99.01
85315;BME280;75718;50.886;11.656;2024-03-02T06:21:14;97670.91;;;6.63;99.32
85315;BME280;75718;50.886;11.656;2024-03-02T06:23:40;97672.16;;;6.74;98.84
85315;BME280;75718;50.886;11.656;2024-03-02T06:26:05;97678.38;;;6.72;98.39
85315;BME280;75718;50.886;11.656;2024-03-02T06:28:30;97681.41;;;6.83;97.95
85315;BME280;75718;50.886;11.656;2024-03-02T06:30:55;97670.91;;;6.84;97.77
85315;BME280;75718;50.886;11.656;2024-03-02T06:33:21;97674.41;;;6.83;97.73
85315;BME280;75718;50.886;11.656;2024-03-02T06:35:46;97669.19;;;6.85;98.10
85315;BME280;75718;50.886;11.656;2024-03-02T06:38:11;97671.59;;;6.89;98.20
85315;BME280;75718;50.886;11.656;2024-03-02T06:40:36;97676.56;;;6.95;98.38
85315;BME280;75718;50.886;11.656;2024-03-02T06:43:04;97674.56;;;7.02;98.93
85315;BME280;75718;50.886;11.656;2024-03-02T06:45:29;97680.13;;;7.14;98.10
85315;BME280;75718;50.886;11.656;2024-03-02T06:47:55;97670.50;;;7.16;98.16
85315;BME280;75718;50.886;11.656;2024-03-02T06:50:21;97679.69;;;7.24;97.12
85315;BME280;75718;50.886;11.656;2024-03-02T06:52:46;97692.69;;;7.26;97.49
85315;BME280;75718;50.886;11.656;2024-03-02T06:55:12;97687.50;;;7.24;97.05
85315;BME280;75718;50.886;11.656;2024-03-02T06:57:37;97690.16;;;7.23;96.12
85315;BME280;75718;50.886;11.656;2024-03-02T07:00:02;97679.66;;;7.26;97.18
85315;BME280;75718;50.886;11.656;2024-03-02T07:02:30;97695.97;;;7.29;96.28
85315;BME280;75718;50.886;11.656;2024-03-02T07:04:55;97690.75;;;7.31;96.66
85315;BME280;75718;50.886;11.656;2024-03-02T07:07:21;97682.84;;;7.32;96.90
85315;BME280;75718;50.886;11.656;2024-03-02T07:09:46;97686.22;;;7.34;96.69
85315;BME280;75718;50.886;11.656;2024-03-02T07:12:13;97694.94;;;7.33;96.34
85315;BME280;75718;50.886;11.656;2024-03-02T07:14:38;97690.53;;;7.35;96.69
85315;BME280;75718;50.886;11.656;2024-03-02T07:17:22;97693.59;;;7.45;95.89
85315;BME280;75718;50.886;11.656;2024-03-02T07:19:47;97697.53;;;7.55;95.63
85315;BME280;75718;50.886;11.656;2024-03-02T07:22:12;97702.38;;;7.64;95.48
85315;BME280;75718;50.886;11.656;2024-03-02T07:24:41;97703.09;;;7.67;95.36
85315;BME280;75718;50.886;11.656;2024-03-02T07:27:10;97701.16;;;7.72;95.36
85315;BME280;75718;50.886;11.656;2024-03-02T07:29:36;97694.97;;;7.75;95.08
85315;BME280;75718;50.886;11.656;2024-03-02T07:32:01;97704.38;;;7.77;95.05
85315;BME280;75718;50.886;11.656;2024-03-02T07:34:26;97703.75;;;7.72;94.96
85315;BME280;75718;50.886;11.656;2024-03-02T07:36:52;97704.53;;;7.74;95.44
85315;BME280;75718;50.886;11.656;2024-03-02T07:39:17;97710.84;;;7.69;95.31
85315;BME280;75718;50.886;11.656;2024-03-02T07:41:45;97715.25;;;7.68;96.37
85315;BME280;75718;50.886;11.656;2024-03-02T07:44:10;97716.25;;;7.64;95.89
85315;BME280;75718;50.886;11.656;2024-03-02T07:46:39;97715.41;;;7.64;96.30
85315;BME280;75718;50.886;11.656;2024-03-02T07:49:04;97723.47;;;7.58;95.82
85315;BME280;75718;50.886;11.656;2024-03-02T07:51:30;97722.72;;;7.56;96.22
85315;BME280;75718;50.886;11.656;2024-03-02T07:53:55;97722.56;;;7.59;95.63
85315;BME280;75718;50.886;11.656;2024-03-02T07:56:20;97715.25;;;7.68;96.43
85315;BME280;75718;50.886;11.656;2024-03-02T07:58:48;97720.78;;;7.80;95.84
85315;BME280;75718;50.886;11.656;2024-03-02T08:01:14;97718.94;;;8.02;95.82
85315;BME280;75718;50.886;11.656;2024-03-02T08:03:40;97714.22;;;8.12;95.20
85315;BME280;75718;50.886;11.656;2024-03-02T08:06:05;97716.16;;;8.27;94.85
85315;BME280;75718;50.886;11.656;2024-03-02T08:08:31;97712.91;;;8.60;94.23
85315;BME280;75718;50.886;11.656;2024-03-02T08:10:56;97701.44;;;9.17;90.05
85315;BME280;75718;50.886;11.656;2024-03-02T08:13:21;97709.66;;;9.10;89.26
85315;BME280;75718;50.886;11.656;2024-03-02T08:15:47;97709.44;;;8.96;90.35
85315;BME280;75718;50.886;11.656;2024-03-02T08:18:12;97722.38;;;9.17;89.49
85315;BME280;75718;50.886;11.656;2024-03-02T08:20:37;97714.69;;;9.14;88.46
85315;BME280;75718;50.886;11.656;2024-03-02T08:23:03;97716.72;;;9.08;88.51
85315;BME280;75718;50.886;11.656;2024-03-02T08:25:28;97711.66;;;9.22;89.17
85315;BME280;75718;50.886;11.656;2024-03-02T08:27:53;97716.22;;;9.70;84.39
85315;BME280;75718;50.886;11.656;2024-03-02T08:30:19;97708.25;;;10.56;82.07
85315;BME280;75718;50.886;11.656;2024-03-02T08:32:44;97704.59;;;11.37;77.46
85315;BME280;75718;50.886;11.656;2024-03-02T08:35:10;97689.41;;;11.73;75.93
85315;BME280;75718;50.886;11.656;2024-03-02T08:37:38;97687.41;;;11.92;74.64
85315;BME280;75718;50.886;11.656;2024-03-02T08:40:05;97684.97;;;12.02;74.33
85315;BME280;75718;50.886;11.656;2024-03-02T08:42:32;97702.38;;;11.45;75.94
85315;BME280;75718;50.886;11.656;2024-03-02T08:44:57;97709.84;;;11.22;77.33
85315;BME280;75718;50.886;11.656;2024-03-02T08:47:23;97709.41;;;10.83;79.09
85315;BME280;75718;50.886;11.656;2024-03-02T08:49:48;97714.00;;;10.63;78.73
85315;BME280;75718;50.886;11.656;2024-03-02T08:52:13;97711.44;;;10.46;81.28
85315;BME280;75718;50.886;11.656;2024-03-02T08:54:39;97716.69;;;10.46;81.95
85315;BME280;75718;50.886;11.656;2024-03-02T08:57:05;97719.28;;;10.46;82.12
85315;BME280;75718;50.886;11.656;2024-03-02T08:59:30;97718.84;;;10.38;81.09
85315;BME280;75718;50.886;11.656;2024-03-02T09:01:56;97714.97;;;10.45;82.63
85315;BME280;75718;50.886;11.656;2024-03-02T09:04:22;97716.59;;;10.47;82.21
85315;BME280;75718;50.886;11.656;2024-03-02T09:06:48;97720.13;;;10.46;81.08
85315;BME280;75718;50.886;11.656;2024-03-02T09:09:13;97721.69;;;10.50;82.42
85315;BME280;75718;50.886;11.656;2024-03-02T09:11:38;97721.22;;;10.42;82.73
85315;BME280;75718;50.886;11.656;2024-03-02T09:14:03;97725.47;;;10.45;82.91
85315;BME280;75718;50.886;11.656;2024-03-02T09:16:30;97720.56;;;10.39;79.97
85315;BME280;75718;50.886;11.656;2024-03-02T09:18:56;97729.78;;;10.46;83.06
85315;BME280;75718;50.886;11.656;2024-03-02T09:21:21;97724.06;;;10.55;81.75
85315;BME280;75718;50.886;11.656;2024-03-02T09:23:47;97729.69;;;10.47;79.17
85315;BME280;75718;50.886;11.656;2024-03-02T09:26:13;97731.34;;;10.65;81.29
85315;BME280;75718;50.886;11.656;2024-03-02T09:28:42;97738.69;;;10.59;82.13
85315;BME280;75718;50.886;11.656;2024-03-02T09:31:08;97733.72;;;10.54;79.82
85315;BME280;75718;50.886;11.656;2024-03-02T09:33:33;97739.97;;;10.52;79.63
85315;BME280;75718;50.886;11.656;2024-03-02T09:35:58;97735.91;;;10.62;80.48
85315;BME280;75718;50.886;11.656;2024-03-02T09:38:23;97725.81;;;10.86;80.56
85315;BME280;75718;50.886;11.656;2024-03-02T09:40:49;97723.56;;;11.11;78.67
85315;BME280;75718;50.886;11.656;2024-03-02T09:43:14;97734.38;;;11.05;78.60
85315;BME280;75718;50.886;11.656;2024-03-02T09:45:39;97738.25;;;10.98;77.82
85315;BME280;75718;50.886;11.656;2024-03-02T09:48:05;97736.25;;;11.03;77.37
85315;BME280;75718;50.886;11.656;2024-03-02T09:50:30;97735.97;;;11.08;76.90
85315;BME280;75718;50.886;11.656;2024-03-02T09:52:56;97739.56;;;11.07;78.41
85315;BME280;75718;50.886;11.656;2024-03-02T09:55:21;97742.34;;;11.19;80.04
85315;BME280;75718;50.886;11.656;2024-03-02T09:57:47;97734.91;;;11.12;78.13
85315;BME280;75718;50.886;11.656;2024-03-02T10:00:14;97743.34;;;11.01;78.57
85315;BME280;75718;50.886;11.656;2024-03-02T10:02:40;97743.69;;;10.95;79.33
85315;BME280;75718;50.886;11.656;2024-03-02T10:05:07;97738.31;;;10.81;79.59
85315;BME280;75718;50.886;11.656;2024-03-02T10:07:32;97752.84;;;10.72;80.34
85315;BME280;75718;50.886;11.656;2024-03-02T10:09:58;97753.72;;;10.72;81.31
85315;BME280;75718;50.886;11.656;2024-03-02T10:12:24;97750.41;;;10.69;80.19
85315;BME280;75718;50.886;11.656;2024-03-02T10:14:49;97756.56;;;10.68;80.82
85315;BME280;75718;50.886;11.656;2024-03-02T10:17:31;97754.41;;;10.59;82.40
85315;BME280;75718;50.886;11.656;2024-03-02T10:19:56;97754.59;;;10.56;81.85
85315;BME280;75718;50.886;11.656;2024-03-02T10:22:23;97749.97;;;10.61;82.39
85315;BME280;75718;50.886;11.656;2024-03-02T10:24:48;97741.25;;;10.76;81.26
85315;BME280;75718;50.886;11.656;2024-03-02T10:27:18;97744.41;;;10.82;80.03
85315;BME280;75718;50.886;11.656;2024-03-02T10:29:47;97739.19;;;10.97;81.14
85315;BME280;75718;50.886;11.656;2024-03-02T10:32:13;97741.97;;;10.94;79.42
85315;BME280;75718;50.886;11.656;2024-03-02T10:34:42;97738.25;;;10.98;78.99
85315;BME280;75718;50.886;11.656;2024-03-02T10:37:08;97741.91;;;10.96;79.46
85315;BME280;75718;50.886;11.656;2024-03-02T10:39:37;97744.34;;;11.14;79.45
85315;BME280;75718;50.886;11.656;2024-03-02T10:42:05;97742.78;;;11.58;76.82
85315;BME280;75718;50.886;11.656;2024-03-02T10:44:31;97729.28;;;12.08;72.23
85315;BME280;75718;50.886;11.656;2024-03-02T10:47:00;97719.91;;;12.75;71.76
85315;BME280;75718;50.886;11.656;2024-03-02T10:49:27;97709.78;;;12.97;68.74
85315;BME280;75718;50.886;11.656;2024-03-02T10:51:53;97722.47;;;12.91;70.41
85315;BME280;75718;50.886;11.656;2024-03-02T10:54:19;97717.16;;;12.63;69.46
85315;BME280;75718;50.886;11.656;2024-03-02T10:56:51;97719.41;;;12.41;72.06
85315;BME280;75718;50.886;11.656;2024-03-02T11:01:55;97705.44;;;13.50;70.24
85315;BME280;75718;50.886;11.656;2024-03-02T11:04:24;97685.63;;;15.45;63.37
85315;BME280;75718;50.886;11.656;2024-03-02T11:06:50;97679.13;;;16.85;57.53
85315;BME280;75718;50.886;11.656;2024-03-02T11:09:19;97677.19;;;17.53;55.13
85315;BME280;75718;50.886;11.656;2024-03-02T11:11:50;97669.44;;;16.30;58.14
85315;BME280;75718;50.886;11.656;2024-03-02T11:14:21;97675.53;;;15.96;58.88
85315;BME280;75718;50.886;11.656;2024-03-02T11:16:49;97669.50;;;16.84;57.99
85315;BME280;75718;50.886;11.656;2024-03-02T11:19:15;97661.50;;;18.12;54.66
85315;BME280;75718;50.886;11.656;2024-03-02T11:21:41;97655.81;;;17.97;53.28
85315;BME280;75718;50.886;11.656;2024-03-02T11:26:58;97652.69;;;18.43;54.60
85315;BME280;75718;50.886;11.656;2024-03-02T11:32:06;97640.13;;;18.95;50.63
85315;BME280;75718;50.886;11.656;2024-03-02T11:34:38;97639.91;;;18.87;49.87
85315;BME280;75718;50.886;11.656;2024-03-02T11:37:05;97639.09;;;18.37;51.71
85315;BME280;75718;50.886;11.656;2024-03-02T11:39:30;97640.19;;;18.34;51.27
85315;BME280;75718;50.886;11.656;2024-03-02T11:41:56;97630.22;;;18.77;52.72
85315;BME280;75718;50.886;11.656;2024-03-02T11:44:22;97613.16;;;19.67;47.41
85315;BME280;75718;50.886;11.656;2024-03-02T11:47:01;97601.25;;;19.90;49.99
85315;BME280;75718;50.886;11.656;2024-03-02T11:49:43;97598.94;;;20.51;48.74
85315;BME280;75718;50.886;11.656;2024-03-02T11:52:11;97598.25;;;20.95;46.45
85315;BME280;75718;50.886;11.656;2024-03-02T11:54:38;97590.03;;;21.15;45.47
85315;BME280;75718;50.886;11.656;2024-03-02T11:57:12;97597.88;;;20.26;47.74
85315;BME280;75718;50.886;11.656;2024-03-02T11:59:39;97589.28;;;20.51;46.41
85315;BME280;75718;50.886;11.656;2024-03-02T12:02:05;97586.94;;;20.38;47.56
85315;BME280;75718;50.886;11.656;2024-03-02T12:04:30;97577.47;;;20.72;45.52
85315;BME280;75718;50.886;11.656;2024-03-02T12:06:58;97588.41;;;19.95;47.87
85315;BME280;75718;50.886;11.656;2024-03-02T12:09:25;97584.59;;;19.60;48.50
85315;BME280;75718;50.886;11.656;2024-03-02T12:12:06;97593.63;;;19.20;47.43
85315;BME280;75718;50.886;11.656;2024-03-02T12:14:32;97589.06;;;19.40;48.92
85315;BME280;75718;50.886;11.656;2024-03-02T12:16:58;97580.97;;;19.61;47.85
85315;BME280;75718;50.886;11.656;2024-03-02T12:19:25;97577.88;;;20.67;47.22
85315;BME280;75718;50.886;11.656;2024-03-02T12:21:50;97569.31;;;21.10;45.42
85315;BME280;75718;50.886;11.656;2024-03-02T12:24:16;97566.31;;;21.39;44.74
85315;BME280;75718;50.886;11.656;2024-03-02T12:26:41;97558.13;;;21.68;43.54
85315;BME280;75718;50.886;11.656;2024-03-02T12:29:07;97555.81;;;21.90;43.52
85315;BME280;75718;50.886;11.656;2024-03-02T12:31:32;97554.75;;;21.83;41.96
85315;BME280;75718;50.886;11.656;2024-03-02T12:33:58;97554.88;;;21.99;42.30
85315;BME280;75718;50.886;11.656;2024-03-02T12:36:23;97569.38;;;21.62;43.16
85315;BME280;75718;50.886;11.656;2024-03-02T12:38:52;97571.59;;;19.85;44.82
85315;BME280;75718;50.886;11.656;2024-03-02T12:41:18;97572.69;;;19.73;47.01
85315;BME280;75718;50.886;11.656;2024-03-02T12:43:43;97568.47;;;20.18;46.76
85315;BME280;75718;50.886;11.656;2024-03-02T12:46:08;97565.59;;;20.48;44.38
85315;BME280;75718;50.886;11.656;2024-03-02T12:48:35;97558.41;;;20.57;43.01
85315;BME280;75718;50.886;11.656;2024-03-02T12:51:01;97556.16;;;20.99;42.71
85315;BME280;75718;50.886;11.656;2024-03-02T12:53:26;97542.94;;;21.85;41.38
85315;BME280;75718;50.886;11.656;2024-03-02T12:55:52;97544.59;;;21.08;41.26
85315;BME280;75718;50.886;11.656;2024-03-02T12:58:22;97539.66;;;21.30;41.34
85315;BME280;75718;50.886;11.656;2024-03-02T13:00:47;97535.78;;;22.11;41.09
85315;BME280;75718;50.886;11.656;2024-03-02T13:03:13;97544.75;;;20.79;40.85
85315;BME280;75718;50.886;11.656;2024-03-02T13:05:39;97534.78;;;21.52;41.04